Terminal Aerodrome Forecast
Issued by NWS Glasgow, MT

Home | Current Version | Previous Version | Text Only | Print | Product List | Glossary On
Versions: 1 2 3 4 5 6 7 8 9 10 11 12
000
FTUS45 KGGW 281727
TAFGGW
TAF
KGGW 281727Z 2818/2918 22004KT P6SM SCT120
     FM290200 14006KT P6SM FEW180
     FM291000 14004KT P6SM BKN100
     FM291400 19004KT P6SM SCT120=

USA.gov is the U.S. government's official web portal to all federal, state and local government web resources and services.